sensor_id;sensor_type;location;lat;lon;timestamp;temperature;humidity
79187;SHT31;68762;51.980;5.646;2023-07-02T00:00:29;20.4;65.4
79187;SHT31;68762;51.980;5.646;2023-07-02T00:02:58;20.4;65.5
79187;SHT31;68762;51.980;5.646;2023-07-02T00:05:27;20.4;65.4
79187;SHT31;68762;51.980;5.646;2023-07-02T00:07:56;20.4;65.3
79187;SHT31;68762;51.980;5.646;2023-07-02T00:10:24;20.4;65.3
79187;SHT31;68762;51.980;5.646;2023-07-02T00:12:53;20.4;65.4
79187;SHT31;68762;51.980;5.646;2023-07-02T00:15:21;20.4;65.3
79187;SHT31;68762;51.980;5.646;2023-07-02T00:17:50;20.4;65.5
79187;SHT31;68762;51.980;5.646;2023-07-02T00:20:19;20.4;65.3
79187;SHT31;68762;51.980;5.646;2023-07-02T00:22:48;20.4;65.8
79187;SHT31;68762;51.980;5.646;2023-07-02T00:25:19;20.4;65.9
79187;SHT31;68762;51.980;5.646;2023-07-02T00:27:47;20.4;63.7
79187;SHT31;68762;51.980;5.646;2023-07-02T00:30:16;20.4;62.2
79187;SHT31;68762;51.980;5.646;2023-07-02T00:32:44;20.4;63.2
79187;SHT31;68762;51.980;5.646;2023-07-02T00:35:15;20.3;62.8
79187;SHT31;68762;51.980;5.646;2023-07-02T00:37:43;20.3;62.9
79187;SHT31;68762;51.980;5.646;2023-07-02T00:40:12;20.2;62.5
79187;SHT31;68762;51.980;5.646;2023-07-02T00:42:41;20.2;62.3
79187;SHT31;68762;51.980;5.646;2023-07-02T00:45:12;20.1;62.9
79187;SHT31;68762;51.980;5.646;2023-07-02T00:47:40;20.1;62.8
79187;SHT31;68762;51.980;5.646;2023-07-02T00:50:10;20.0;62.1
79187;SHT31;68762;51.980;5.646;2023-07-02T00:52:38;20.0;62.3
79187;SHT31;68762;51.980;5.646;2023-07-02T00:55:08;19.9;61.8
79187;SHT31;68762;51.980;5.646;2023-07-02T00:57:36;19.9;61.7
79187;SHT31;68762;51.980;5.646;2023-07-02T01:00:08;19.8;60.9
79187;SHT31;68762;51.980;5.646;2023-07-02T01:02:36;19.7;60.8
79187;SHT31;68762;51.980;5.646;2023-07-02T01:05:13;19.7;60.9
79187;SHT31;68762;51.980;5.646;2023-07-02T01:07:42;19.6;60.8
79187;SHT31;68762;51.980;5.646;2023-07-02T01:10:10;19.6;60.8
79187;SHT31;68762;51.980;5.646;2023-07-02T01:12:40;19.5;60.3
79187;SHT31;68762;51.980;5.646;2023-07-02T01:15:11;19.5;61.2
79187;SHT31;68762;51.980;5.646;2023-07-02T01:17:40;19.4;60.4
79187;SHT31;68762;51.980;5.646;2023-07-02T01:20:10;19.4;61.0
79187;SHT31;68762;51.980;5.646;2023-07-02T01:22:42;19.4;60.7
79187;SHT31;68762;51.980;5.646;2023-07-02T01:25:10;19.3;61.2
79187;SHT31;68762;51.980;5.646;2023-07-02T01:27:41;19.3;61.3
79187;SHT31;68762;51.980;5.646;2023-07-02T01:30:10;19.3;61.4
79187;SHT31;68762;51.980;5.646;2023-07-02T01:32:39;19.2;61.8
79187;SHT31;68762;51.980;5.646;2023-07-02T01:35:08;19.2;61.9
79187;SHT31;68762;51.980;5.646;2023-07-02T01:37:39;19.2;62.2
79187;SHT31;68762;51.980;5.646;2023-07-02T01:40:08;19.2;62.6
79187;SHT31;68762;51.980;5.646;2023-07-02T01:42:37;19.1;62.9
79187;SHT31;68762;51.980;5.646;2023-07-02T01:45:07;19.1;63.0
79187;SHT31;68762;51.980;5.646;2023-07-02T01:47:36;19.1;63.2
79187;SHT31;68762;51.980;5.646;2023-07-02T01:50:05;19.1;63.5
79187;SHT31;68762;51.980;5.646;2023-07-02T01:52:34;19.0;63.1
79187;SHT31;68762;51.980;5.646;2023-07-02T01:55:03;19.0;63.2
79187;SHT31;68762;51.980;5.646;2023-07-02T01:57:32;19.0;63.5
79187;SHT31;68762;51.980;5.646;2023-07-02T02:00:03;18.9;63.3
79187;SHT31;68762;51.980;5.646;2023-07-02T02:02:32;18.9;63.3
79187;SHT31;68762;51.980;5.646;2023-07-02T02:05:01;18.9;63.5
79187;SHT31;68762;51.980;5.646;2023-07-02T02:07:29;18.8;63.9
79187;SHT31;68762;51.980;5.646;2023-07-02T02:09:59;18.8;64.0
79187;SHT31;68762;51.980;5.646;2023-07-02T02:12:27;18.7;64.2
79187;SHT31;68762;51.980;5.646;2023-07-02T02:14:58;18.7;64.1
79187;SHT31;68762;51.980;5.646;2023-07-02T02:17:27;18.7;64.2
79187;SHT31;68762;51.980;5.646;2023-07-02T02:19:55;18.7;64.1
79187;SHT31;68762;51.980;5.646;2023-07-02T02:22:24;18.6;64.2
79187;SHT31;68762;51.980;5.646;2023-07-02T02:24:52;18.6;64.2
79187;SHT31;68762;51.980;5.646;2023-07-02T02:27:21;18.6;64.6
79187;SHT31;68762;51.980;5.646;2023-07-02T02:29:49;18.5;64.3
79187;SHT31;68762;51.980;5.646;2023-07-02T02:32:18;18.5;64.8
79187;SHT31;68762;51.980;5.646;2023-07-02T02:34:48;18.5;64.3
79187;SHT31;68762;51.980;5.646;2023-07-02T02:37:16;18.5;64.7
79187;SHT31;68762;51.980;5.646;2023-07-02T02:39:45;18.5;64.6
79187;SHT31;68762;51.980;5.646;2023-07-02T02:42:13;18.5;64.4
79187;SHT31;68762;51.980;5.646;2023-07-02T02:44:44;18.4;64.6
79187;SHT31;68762;51.980;5.646;2023-07-02T02:47:12;18.4;64.7
79187;SHT31;68762;51.980;5.646;2023-07-02T02:49:41;18.4;64.5
79187;SHT31;68762;51.980;5.646;2023-07-02T02:52:09;18.4;64.3
79187;SHT31;68762;51.980;5.646;2023-07-02T02:54:40;18.4;64.8
79187;SHT31;68762;51.980;5.646;2023-07-02T02:57:09;18.4;64.3
79187;SHT31;68762;51.980;5.646;2023-07-02T02:59:38;18.4;64.8
79187;SHT31;68762;51.980;5.646;2023-07-02T03:02:06;18.4;64.6
79187;SHT31;68762;51.980;5.646;2023-07-02T03:04:36;18.3;64.5
79187;SHT31;68762;51.980;5.646;2023-07-02T03:07:06;18.3;64.6
79187;SHT31;68762;51.980;5.646;2023-07-02T03:09:35;18.3;64.5
79187;SHT31;68762;51.980;5.646;2023-07-02T03:12:04;18.3;64.7
79187;SHT31;68762;51.980;5.646;2023-07-02T03:14:33;18.3;64.7
79187;SHT31;68762;51.980;5.646;2023-07-02T03:17:02;18.3;64.8
79187;SHT31;68762;51.980;5.646;2023-07-02T03:19:31;18.3;64.8
79187;SHT31;68762;51.980;5.646;2023-07-02T03:21:59;18.3;64.5
79187;SHT31;68762;51.980;5.646;2023-07-02T03:24:28;18.2;64.7
79187;SHT31;68762;51.980;5.646;2023-07-02T03:26:58;18.2;64.5
79187;SHT31;68762;51.980;5.646;2023-07-02T03:29:27;18.2;64.4
79187;SHT31;68762;51.980;5.646;2023-07-02T03:31:55;18.2;64.5
79187;SHT31;68762;51.980;5.646;2023-07-02T03:34:24;18.2;64.5
79187;SHT31;68762;51.980;5.646;2023-07-02T03:36:53;18.2;64.1
79187;SHT31;68762;51.980;5.646;2023-07-02T03:39:21;18.2;64.2
79187;SHT31;68762;51.980;5.646;2023-07-02T03:41:50;18.1;64.3
79187;SHT31;68762;51.980;5.646;2023-07-02T03:44:19;18.1;64.3
79187;SHT31;68762;51.980;5.646;2023-07-02T03:46:48;18.1;64.0
79187;SHT31;68762;51.980;5.646;2023-07-02T03:49:16;18.1;63.7
79187;SHT31;68762;51.980;5.646;2023-07-02T03:51:45;18.1;63.6
79187;SHT31;68762;51.980;5.646;2023-07-02T03:54:14;18.1;63.2
79187;SHT31;68762;51.980;5.646;2023-07-02T03:56:43;18.0;63.4
79187;SHT31;68762;51.980;5.646;2023-07-02T03:59:11;18.0;62.9
79187;SHT31;68762;51.980;5.646;2023-07-02T04:01:40;18.0;63.4
79187;SHT31;68762;51.980;5.646;2023-07-02T04:04:09;18.0;63.1
79187;SHT31;68762;51.980;5.646;2023-07-02T04:06:38;18.0;62.7
79187;SHT31;68762;51.980;5.646;2023-07-02T04:09:06;18.0;62.4
79187;SHT31;68762;51.980;5.646;2023-07-02T04:11:35;18.0;62.3
79187;SHT31;68762;51.980;5.646;2023-07-02T04:14:03;18.0;62.3
79187;SHT31;68762;51.980;5.646;2023-07-02T04:16:32;17.9;62.7
79187;SHT31;68762;51.980;5.646;2023-07-02T04:19:00;17.9;63.1
79187;SHT31;68762;51.980;5.646;2023-07-02T04:21:30;17.9;62.9
79187;SHT31;68762;51.980;5.646;2023-07-02T04:23:59;17.9;63.0
79187;SHT31;68762;51.980;5.646;2023-07-02T04:26:27;17.9;62.8
79187;SHT31;68762;51.980;5.646;2023-07-02T04:28:56;17.9;62.8
79187;SHT31;68762;51.980;5.646;2023-07-02T04:31:25;17.9;62.6
79187;SHT31;68762;51.980;5.646;2023-07-02T04:33:54;17.9;62.5
79187;SHT31;68762;51.980;5.646;2023-07-02T04:36:23;17.9;62.5
79187;SHT31;68762;51.980;5.646;2023-07-02T04:38:51;17.9;62.4
79187;SHT31;68762;51.980;5.646;2023-07-02T04:41:20;17.9;62.0
79187;SHT31;68762;51.980;5.646;2023-07-02T04:43:49;17.9;62.0
79187;SHT31;68762;51.980;5.646;2023-07-02T04:46:19;17.9;62.1
79187;SHT31;68762;51.980;5.646;2023-07-02T04:48:47;17.9;61.4
79187;SHT31;68762;51.980;5.646;2023-07-02T04:51:16;17.9;61.3
79187;SHT31;68762;51.980;5.646;2023-07-02T04:53:44;17.9;61.3
79187;SHT31;68762;51.980;5.646;2023-07-02T04:56:13;17.9;61.2
79187;SHT31;68762;51.980;5.646;2023-07-02T04:58:41;17.9;61.0
79187;SHT31;68762;51.980;5.646;2023-07-02T05:01:10;17.9;60.6
79187;SHT31;68762;51.980;5.646;2023-07-02T05:03:39;17.9;60.4
79187;SHT31;68762;51.980;5.646;2023-07-02T05:06:07;17.9;60.3
79187;SHT31;68762;51.980;5.646;2023-07-02T05:08:36;17.9;59.9
79187;SHT31;68762;51.980;5.646;2023-07-02T05:11:04;17.9;60.3
79187;SHT31;68762;51.980;5.646;2023-07-02T05:13:33;17.9;59.8
79187;SHT31;68762;51.980;5.646;2023-07-02T05:16:02;17.9;60.0
79187;SHT31;68762;51.980;5.646;2023-07-02T05:18:30;17.9;60.2
79187;SHT31;68762;51.980;5.646;2023-07-02T05:20:59;17.9;59.9
79187;SHT31;68762;51.980;5.646;2023-07-02T05:23:27;17.9;59.7
79187;SHT31;68762;51.980;5.646;2023-07-02T05:25:56;17.9;60.3
79187;SHT31;68762;51.980;5.646;2023-07-02T05:28:25;17.9;59.3
79187;SHT31;68762;51.980;5.646;2023-07-02T05:30:53;17.9;60.0
79187;SHT31;68762;51.980;5.646;2023-07-02T05:33:22;17.9;59.5
79187;SHT31;68762;51.980;5.646;2023-07-02T05:35:50;18.0;59.4
79187;SHT31;68762;51.980;5.646;2023-07-02T05:38:19;18.0;59.3
79187;SHT31;68762;51.980;5.646;2023-07-02T05:40:47;18.0;59.9
79187;SHT31;68762;51.980;5.646;2023-07-02T05:43:16;18.0;59.4
79187;SHT31;68762;51.980;5.646;2023-07-02T05:45:44;18.0;59.3
79187;SHT31;68762;51.980;5.646;2023-07-02T05:48:13;18.0;59.5
79187;SHT31;68762;51.980;5.646;2023-07-02T05:50:42;18.0;60.0
79187;SHT31;68762;51.980;5.646;2023-07-02T05:53:10;18.1;59.4
79187;SHT31;68762;51.980;5.646;2023-07-02T05:55:41;18.1;59.4
79187;SHT31;68762;51.980;5.646;2023-07-02T05:58:10;18.1;59.3
79187;SHT31;68762;51.980;5.646;2023-07-02T06:00:39;18.1;59.0
79187;SHT31;68762;51.980;5.646;2023-07-02T06:03:14;18.1;58.5
79187;SHT31;68762;51.980;5.646;2023-07-02T06:05:45;18.2;58.5
79187;SHT31;68762;51.980;5.646;2023-07-02T06:08:15;18.2;58.1
79187;SHT31;68762;51.980;5.646;2023-07-02T06:10:46;18.2;57.9
79187;SHT31;68762;51.980;5.646;2023-07-02T06:13:16;18.2;58.2
79187;SHT31;68762;51.980;5.646;2023-07-02T06:15:45;18.3;59.4
79187;SHT31;68762;51.980;5.646;2023-07-02T06:18:14;18.3;59.0
79187;SHT31;68762;51.980;5.646;2023-07-02T06:20:44;18.3;59.3
79187;SHT31;68762;51.980;5.646;2023-07-02T06:23:12;18.4;57.8
79187;SHT31;68762;51.980;5.646;2023-07-02T06:25:41;18.4;58.7
79187;SHT31;68762;51.980;5.646;2023-07-02T06:28:10;18.4;58.5
79187;SHT31;68762;51.980;5.646;2023-07-02T06:30:38;18.5;58.4
79187;SHT31;68762;51.980;5.646;2023-07-02T06:33:07;18.5;58.3
79187;SHT31;68762;51.980;5.646;2023-07-02T06:35:35;18.5;57.6
79187;SHT31;68762;51.980;5.646;2023-07-02T06:38:04;18.6;57.0
79187;SHT31;68762;51.980;5.646;2023-07-02T06:40:32;18.6;57.4
79187;SHT31;68762;51.980;5.646;2023-07-02T06:43:01;18.6;57.2
79187;SHT31;68762;51.980;5.646;2023-07-02T06:45:29;18.7;57.4
79187;SHT31;68762;51.980;5.646;2023-07-02T06:47:58;18.7;56.9
79187;SHT31;68762;51.980;5.646;2023-07-02T06:50:26;18.7;57.9
79187;SHT31;68762;51.980;5.646;2023-07-02T06:52:57;18.8;56.3
79187;SHT31;68762;51.980;5.646;2023-07-02T06:55:25;18.8;56.1
79187;SHT31;68762;51.980;5.646;2023-07-02T06:58:03;18.8;56.5
79187;SHT31;68762;51.980;5.646;2023-07-02T07:00:33;18.8;57.4
79187;SHT31;68762;51.980;5.646;2023-07-02T07:03:02;18.9;55.3
79187;SHT31;68762;51.980;5.646;2023-07-02T07:05:32;18.9;55.3
79187;SHT31;68762;51.980;5.646;2023-07-02T07:08:01;18.9;55.5
79187;SHT31;68762;51.980;5.646;2023-07-02T07:10:30;18.9;56.0
79187;SHT31;68762;51.980;5.646;2023-07-02T07:13:00;19.0;56.6
79187;SHT31;68762;51.980;5.646;2023-07-02T07:15:33;19.0;57.9
79187;SHT31;68762;51.980;5.646;2023-07-02T07:18:03;19.0;56.5
79187;SHT31;68762;51.980;5.646;2023-07-02T07:20:32;19.1;55.9
79187;SHT31;68762;51.980;5.646;2023-07-02T07:23:02;19.1;56.1
79187;SHT31;68762;51.980;5.646;2023-07-02T07:25:31;19.1;56.1
79187;SHT31;68762;51.980;5.646;2023-07-02T07:28:00;19.2;55.5
79187;SHT31;68762;51.980;5.646;2023-07-02T07:30:30;19.2;55.6
79187;SHT31;68762;51.980;5.646;2023-07-02T07:32:59;19.2;54.8
79187;SHT31;68762;51.980;5.646;2023-07-02T07:35:27;19.2;55.7
79187;SHT31;68762;51.980;5.646;2023-07-02T07:37:58;19.3;56.1
79187;SHT31;68762;51.980;5.646;2023-07-02T07:40:26;19.3;56.2
79187;SHT31;68762;51.980;5.646;2023-07-02T07:42:57;19.3;56.0
79187;SHT31;68762;51.980;5.646;2023-07-02T07:45:26;19.3;56.5
79187;SHT31;68762;51.980;5.646;2023-07-02T07:47:56;19.3;57.2
79187;SHT31;68762;51.980;5.646;2023-07-02T07:50:25;19.4;56.6
79187;SHT31;68762;51.980;5.646;2023-07-02T07:52:53;19.4;56.0
79187;SHT31;68762;51.980;5.646;2023-07-02T07:55:24;19.4;55.8
79187;SHT31;68762;51.980;5.646;2023-07-02T07:57:53;19.4;54.0
79187;SHT31;68762;51.980;5.646;2023-07-02T08:00:22;19.4;52.6
79187;SHT31;68762;51.980;5.646;2023-07-02T08:02:50;19.5;52.3
79187;SHT31;68762;51.980;5.646;2023-07-02T08:05:22;19.5;52.7
79187;SHT31;68762;51.980;5.646;2023-07-02T08:07:51;19.6;52.7
79187;SHT31;68762;51.980;5.646;2023-07-02T08:10:20;19.6;53.5
79187;SHT31;68762;51.980;5.646;2023-07-02T08:12:50;19.7;51.9
79187;SHT31;68762;51.980;5.646;2023-07-02T08:15:19;19.8;51.7
79187;SHT31;68762;51.980;5.646;2023-07-02T08:17:49;19.8;52.1
79187;SHT31;68762;51.980;5.646;2023-07-02T08:20:21;19.9;49.8
79187;SHT31;68762;51.980;5.646;2023-07-02T08:22:50;19.9;48.5
79187;SHT31;68762;51.980;5.646;2023-07-02T08:25:19;19.9;48.2
79187;SHT31;68762;51.980;5.646;2023-07-02T08:27:48;19.9;48.5
79187;SHT31;68762;51.980;5.646;2023-07-02T08:30:17;19.9;48.8
79187;SHT31;68762;51.980;5.646;2023-07-02T08:32:47;19.9;47.8
79187;SHT31;68762;51.980;5.646;2023-07-02T08:35:16;19.9;48.1
79187;SHT31;68762;51.980;5.646;2023-07-02T08:37:44;19.9;50.1
79187;SHT31;68762;51.980;5.646;2023-07-02T08:40:22;19.9;51.4
79187;SHT31;68762;51.980;5.646;2023-07-02T08:42:51;20.0;51.8
79187;SHT31;68762;51.980;5.646;2023-07-02T08:45:20;20.0;51.6
79187;SHT31;68762;51.980;5.646;2023-07-02T08:47:53;20.1;50.5
79187;SHT31;68762;51.980;5.646;2023-07-02T08:50:23;20.2;50.3
79187;SHT31;68762;51.980;5.646;2023-07-02T08:52:53;20.3;48.5
79187;SHT31;68762;51.980;5.646;2023-07-02T08:55:22;20.3;47.4
79187;SHT31;68762;51.980;5.646;2023-07-02T08:57:53;20.3;46.7
79187;SHT31;68762;51.980;5.646;2023-07-02T09:00:22;20.3;46.0
79187;SHT31;68762;51.980;5.646;2023-07-02T09:02:53;20.4;46.1
79187;SHT31;68762;51.980;5.646;2023-07-02T09:05:21;20.4;45.1
79187;SHT31;68762;51.980;5.646;2023-07-02T09:07:50;20.5;43.5
79187;SHT31;68762;51.980;5.646;2023-07-02T09:10:29;20.5;43.3
79187;SHT31;68762;51.980;5.646;2023-07-02T09:13:05;20.5;45.2
79187;SHT31;68762;51.980;5.646;2023-07-02T09:15:39;20.5;44.1
79187;SHT31;68762;51.980;5.646;2023-07-02T09:18:21;20.6;45.2
79187;SHT31;68762;51.980;5.646;2023-07-02T09:20:54;20.6;42.7
79187;SHT31;68762;51.980;5.646;2023-07-02T09:23:33;20.7;44.2
79187;SHT31;68762;51.980;5.646;2023-07-02T09:26:05;20.7;42.8
79187;SHT31;68762;51.980;5.646;2023-07-02T09:28:33;20.8;42.0
79187;SHT31;68762;51.980;5.646;2023-07-02T09:31:02;20.8;41.2
79187;SHT31;68762;51.980;5.646;2023-07-02T09:33:31;20.9;42.9
79187;SHT31;68762;51.980;5.646;2023-07-02T09:35:59;20.9;41.2
79187;SHT31;68762;51.980;5.646;2023-07-02T09:38:28;21.0;41.9
79187;SHT31;68762;51.980;5.646;2023-07-02T09:40:59;21.0;41.5
79187;SHT31;68762;51.980;5.646;2023-07-02T09:43:30;21.1;40.3
79187;SHT31;68762;51.980;5.646;2023-07-02T09:45:59;21.2;40.6
79187;SHT31;68762;51.980;5.646;2023-07-02T09:48:32;21.2;39.4
79187;SHT31;68762;51.980;5.646;2023-07-02T09:51:04;21.3;39.2
79187;SHT31;68762;51.980;5.646;2023-07-02T09:53:32;21.4;41.0
79187;SHT31;68762;51.980;5.646;2023-07-02T09:56:01;21.4;38.9
79187;SHT31;68762;51.980;5.646;2023-07-02T09:58:31;21.5;37.3
79187;SHT31;68762;51.980;5.646;2023-07-02T10:01:00;21.5;41.0
79187;SHT31;68762;51.980;5.646;2023-07-02T10:03:32;21.6;40.5
79187;SHT31;68762;51.980;5.646;2023-07-02T10:06:04;21.7;39.3
79187;SHT31;68762;51.980;5.646;2023-07-02T10:08:34;21.7;37.6
79187;SHT31;68762;51.980;5.646;2023-07-02T10:11:10;21.8;38.1
79187;SHT31;68762;51.980;5.646;2023-07-02T10:13:40;21.8;38.6
79187;SHT31;68762;51.980;5.646;2023-07-02T10:16:08;21.8;39.2
79187;SHT31;68762;51.980;5.646;2023-07-02T10:18:38;21.8;37.8
79187;SHT31;68762;51.980;5.646;2023-07-02T10:21:17;21.8;38.7
79187;SHT31;68762;51.980;5.646;2023-07-02T10:23:46;21.9;39.0
79187;SHT31;68762;51.980;5.646;2023-07-02T10:26:18;21.9;39.8
79187;SHT31;68762;51.980;5.646;2023-07-02T10:29:19;22.0;39.1
79187;SHT31;68762;51.980;5.646;2023-07-02T10:31:53;22.1;40.6
79187;SHT31;68762;51.980;5.646;2023-07-02T10:34:33;22.2;36.6
79187;SHT31;68762;51.980;5.646;2023-07-02T10:37:03;22.2;35.9
79187;SHT31;68762;51.980;5.646;2023-07-02T10:39:38;22.3;36.2
79187;SHT31;68762;51.980;5.646;2023-07-02T10:42:07;22.3;35.7
79187;SHT31;68762;51.980;5.646;2023-07-02T10:44:49;22.2;36.9
79187;SHT31;68762;51.980;5.646;2023-07-02T10:47:19;22.2;36.7
79187;SHT31;68762;51.980;5.646;2023-07-02T10:49:49;22.2;36.4
79187;SHT31;68762;51.980;5.646;2023-07-02T10:52:18;22.2;38.1
79187;SHT31;68762;51.980;5.646;2023-07-02T10:54:47;22.2;37.6
79187;SHT31;68762;51.980;5.646;2023-07-02T10:57:19;22.3;39.4
79187;SHT31;68762;51.980;5.646;2023-07-02T10:59:48;22.4;38.4
79187;SHT31;68762;51.980;5.646;2023-07-02T11:02:17;22.4;37.3
79187;SHT31;68762;51.980;5.646;2023-07-02T11:04:47;22.5;34.1
79187;SHT31;68762;51.980;5.646;2023-07-02T11:07:24;22.6;35.9
79187;SHT31;68762;51.980;5.646;2023-07-02T11:09:54;22.6;36.2
79187;SHT31;68762;51.980;5.646;2023-07-02T11:12:29;22.7;35.9
79187;SHT31;68762;51.980;5.646;2023-07-02T11:15:06;22.7;34.2
79187;SHT31;68762;51.980;5.646;2023-07-02T11:17:35;22.8;35.4
79187;SHT31;68762;51.980;5.646;2023-07-02T11:20:04;22.8;34.1
79187;SHT31;68762;51.980;5.646;2023-07-02T11:22:35;22.8;35.8
79187;SHT31;68762;51.980;5.646;2023-07-02T11:25:15;22.8;36.0
79187;SHT31;68762;51.980;5.646;2023-07-02T11:27:44;22.8;35.9
79187;SHT31;68762;51.980;5.646;2023-07-02T11:30:15;22.9;35.0
79187;SHT31;68762;51.980;5.646;2023-07-02T11:32:52;22.9;35.3
79187;SHT31;68762;51.980;5.646;2023-07-02T11:35:21;22.9;34.6
79187;SHT31;68762;51.980;5.646;2023-07-02T11:37:50;23.0;35.5
79187;SHT31;68762;51.980;5.646;2023-07-02T11:40:19;23.0;33.5
79187;SHT31;68762;51.980;5.646;2023-07-02T11:42:48;23.0;33.4
79187;SHT31;68762;51.980;5.646;2023-07-02T11:45:16;23.0;34.6
79187;SHT31;68762;51.980;5.646;2023-07-02T11:47:45;23.0;35.1
79187;SHT31;68762;51.980;5.646;2023-07-02T11:50:16;23.0;36.1
79187;SHT31;68762;51.980;5.646;2023-07-02T11:52:44;23.1;35.5
79187;SHT31;68762;51.980;5.646;2023-07-02T11:55:13;23.1;34.6
79187;SHT31;68762;51.980;5.646;2023-07-02T11:57:42;23.2;34.5
79187;SHT31;68762;51.980;5.646;2023-07-02T12:00:13;23.3;33.2
79187;SHT31;68762;51.980;5.646;2023-07-02T12:02:41;23.3;33.9
79187;SHT31;68762;51.980;5.646;2023-07-02T12:05:10;23.4;33.0
79187;SHT31;68762;51.980;5.646;2023-07-02T12:07:39;23.4;33.1
79187;SHT31;68762;51.980;5.646;2023-07-02T12:10:08;23.4;32.6
79187;SHT31;68762;51.980;5.646;2023-07-02T12:12:36;23.4;33.5
79187;SHT31;68762;51.980;5.646;2023-07-02T12:15:06;23.5;32.0
79187;SHT31;68762;51.980;5.646;2023-07-02T12:17:34;23.5;31.6
79187;SHT31;68762;51.980;5.646;2023-07-02T12:20:03;23.5;32.0
79187;SHT31;68762;51.980;5.646;2023-07-02T12:22:32;23.5;32.9
79187;SHT31;68762;51.980;5.646;2023-07-02T12:25:01;23.5;33.6
79187;SHT31;68762;51.980;5.646;2023-07-02T12:27:29;23.5;33.5
79187;SHT31;68762;51.980;5.646;2023-07-02T12:29:58;23.5;33.0
79187;SHT31;68762;51.980;5.646;2023-07-02T12:32:26;23.5;32.5
79187;SHT31;68762;51.980;5.646;2023-07-02T12:34:58;23.5;32.3
79187;SHT31;68762;51.980;5.646;2023-07-02T12:37:27;23.5;32.2
79187;SHT31;68762;51.980;5.646;2023-07-02T12:39:56;23.5;32.8
79187;SHT31;68762;51.980;5.646;2023-07-02T12:42:24;23.5;32.9
79187;SHT31;68762;51.980;5.646;2023-07-02T12:44:53;23.5;33.1
79187;SHT31;68762;51.980;5.646;2023-07-02T12:47:21;23.5;33.2
79187;SHT31;68762;51.980;5.646;2023-07-02T12:49:50;23.5;33.2
79187;SHT31;68762;51.980;5.646;2023-07-02T12:52:18;23.6;33.7
79187;SHT31;68762;51.980;5.646;2023-07-02T12:54:49;23.6;33.3
79187;SHT31;68762;51.980;5.646;2023-07-02T12:57:18;23.6;33.7
79187;SHT31;68762;51.980;5.646;2023-07-02T12:59:49;23.6;34.3
79187;SHT31;68762;51.980;5.646;2023-07-02T13:02:19;23.6;33.5
79187;SHT31;68762;51.980;5.646;2023-07-02T13:04:48;23.6;33.5
79187;SHT31;68762;51.980;5.646;2023-07-02T13:07:17;23.6;33.2
79187;SHT31;68762;51.980;5.646;2023-07-02T13:09:46;23.6;34.6
79187;SHT31;68762;51.980;5.646;2023-07-02T13:12:14;23.6;36.2
79187;SHT31;68762;51.980;5.646;2023-07-02T13:14:44;23.6;36.4
79187;SHT31;68762;51.980;5.646;2023-07-02T13:17:13;23.7;35.5
79187;SHT31;68762;51.980;5.646;2023-07-02T13:19:41;23.7;35.5
79187;SHT31;68762;51.980;5.646;2023-07-02T13:22:10;23.7;34.1
79187;SHT31;68762;51.980;5.646;2023-07-02T13:24:39;23.7;35.6
79187;SHT31;68762;51.980;5.646;2023-07-02T13:27:15;23.7;34.5
79187;SHT31;68762;51.980;5.646;2023-07-02T13:29:45;23.7;36.1
79187;SHT31;68762;51.980;5.646;2023-07-02T13:32:14;23.7;35.8
79187;SHT31;68762;51.980;5.646;2023-07-02T13:34:43;23.7;35.4
79187;SHT31;68762;51.980;5.646;2023-07-02T13:37:13;23.7;35.5
79187;SHT31;68762;51.980;5.646;2023-07-02T13:39:46;23.7;34.4
79187;SHT31;68762;51.980;5.646;2023-07-02T13:42:16;23.6;35.6
79187;SHT31;68762;51.980;5.646;2023-07-02T13:44:46;23.6;35.9
79187;SHT31;68762;51.980;5.646;2023-07-02T13:47:14;23.6;36.0
79187;SHT31;68762;51.980;5.646;2023-07-02T13:49:43;23.7;36.6
79187;SHT31;68762;51.980;5.646;2023-07-02T13:52:12;23.7;35.8
79187;SHT31;68762;51.980;5.646;2023-07-02T13:54:40;23.7;36.4
79187;SHT31;68762;51.980;5.646;2023-07-02T13:57:09;23.6;35.5
79187;SHT31;68762;51.980;5.646;2023-07-02T13:59:37;23.6;36.4
79187;SHT31;68762;51.980;5.646;2023-07-02T14:02:06;23.6;37.0
79187;SHT31;68762;51.980;5.646;2023-07-02T14:04:37;23.6;36.0
79187;SHT31;68762;51.980;5.646;2023-07-02T14:07:06;23.6;36.1
79187;SHT31;68762;51.980;5.646;2023-07-02T14:09:34;23.6;38.0
79187;SHT31;68762;51.980;5.646;2023-07-02T14:12:04;23.6;37.3
79187;SHT31;68762;51.980;5.646;2023-07-02T14:14:32;23.7;37.1
79187;SHT31;68762;51.980;5.646;2023-07-02T14:17:01;23.7;36.7
79187;SHT31;68762;51.980;5.646;2023-07-02T14:19:29;23.8;36.7
79187;SHT31;68762;51.980;5.646;2023-07-02T14:21:58;23.8;35.5
79187;SHT31;68762;51.980;5.646;2023-07-02T14:24:28;23.8;35.8
79187;SHT31;68762;51.980;5.646;2023-07-02T14:26:57;23.8;36.4
79187;SHT31;68762;51.980;5.646;2023-07-02T14:29:28;23.8;36.6
79187;SHT31;68762;51.980;5.646;2023-07-02T14:31:56;23.8;36.6
79187;SHT31;68762;51.980;5.646;2023-07-02T14:34:25;23.8;36.1
79187;SHT31;68762;51.980;5.646;2023-07-02T14:36:57;23.9;33.0
79187;SHT31;68762;51.980;5.646;2023-07-02T14:39:26;23.9;32.4
79187;SHT31;68762;51.980;5.646;2023-07-02T14:41:54;23.9;31.8
79187;SHT31;68762;51.980;5.646;2023-07-02T14:44:23;23.9;31.8
79187;SHT31;68762;51.980;5.646;2023-07-02T14:46:52;23.9;32.1
79187;SHT31;68762;51.980;5.646;2023-07-02T14:49:20;23.9;31.8
79187;SHT31;68762;51.980;5.646;2023-07-02T14:51:49;23.8;33.7
79187;SHT31;68762;51.980;5.646;2023-07-02T14:54:18;23.8;34.2
79187;SHT31;68762;51.980;5.646;2023-07-02T14:56:46;23.8;33.9
79187;SHT31;68762;51.980;5.646;2023-07-02T14:59:15;23.8;32.6
79187;SHT31;68762;51.980;5.646;2023-07-02T15:01:43;23.8;32.3
79187;SHT31;68762;51.980;5.646;2023-07-02T15:04:12;23.8;33.4
79187;SHT31;68762;51.980;5.646;2023-07-02T15:06:42;23.8;32.5
79187;SHT31;68762;51.980;5.646;2023-07-02T15:09:11;23.8;31.9
79187;SHT31;68762;51.980;5.646;2023-07-02T15:11:39;23.8;31.5
79187;SHT31;68762;51.980;5.646;2023-07-02T15:14:08;23.7;32.5
79187;SHT31;68762;51.980;5.646;2023-07-02T15:16:36;23.7;31.1
79187;SHT31;68762;51.980;5.646;2023-07-02T15:19:05;23.7;32.7
79187;SHT31;68762;51.980;5.646;2023-07-02T15:21:34;23.7;32.5
79187;SHT31;68762;51.980;5.646;2023-07-02T15:24:02;23.7;32.6
79187;SHT31;68762;51.980;5.646;2023-07-02T15:26:31;23.6;32.6
79187;SHT31;68762;51.980;5.646;2023-07-02T15:29:00;23.6;32.7
79187;SHT31;68762;51.980;5.646;2023-07-02T15:31:29;23.6;32.8
79187;SHT31;68762;51.980;5.646;2023-07-02T15:33:57;23.6;33.3
79187;SHT31;68762;51.980;5.646;2023-07-02T15:36:29;23.6;33.7
79187;SHT31;68762;51.980;5.646;2023-07-02T15:39:02;23.6;33.6
79187;SHT31;68762;51.980;5.646;2023-07-02T15:41:32;23.5;33.7
79187;SHT31;68762;51.980;5.646;2023-07-02T15:44:03;23.5;34.1
79187;SHT31;68762;51.980;5.646;2023-07-02T15:46:34;23.5;35.7
79187;SHT31;68762;51.980;5.646;2023-07-02T15:49:02;23.5;34.1
79187;SHT31;68762;51.980;5.646;2023-07-02T15:51:33;23.5;33.8
79187;SHT31;68762;51.980;5.646;2023-07-02T15:54:03;23.5;34.7
79187;SHT31;68762;51.980;5.646;2023-07-02T15:56:33;23.5;34.1
79187;SHT31;68762;51.980;5.646;2023-07-02T15:59:02;23.5;34.1
79187;SHT31;68762;51.980;5.646;2023-07-02T16:01:34;23.5;34.2
79187;SHT31;68762;51.980;5.646;2023-07-02T16:04:05;23.4;34.0
79187;SHT31;68762;51.980;5.646;2023-07-02T16:06:35;23.4;34.7
79187;SHT31;68762;51.980;5.646;2023-07-02T16:09:05;23.4;35.2
79187;SHT31;68762;51.980;5.646;2023-07-02T16:11:35;23.4;34.9
79187;SHT31;68762;51.980;5.646;2023-07-02T16:14:11;23.4;35.5
79187;SHT31;68762;51.980;5.646;2023-07-02T16:16:42;23.3;35.1